Time;durP1;ratioP1;P1;durP2;ratioP2;P2;SDS_P1;SDS_P2;PMS_P1;PMS_P2;Temp;Humidity;BMP_temperature;BMP_pressure;BME280_temperature;BME280_humidity;BME280_pressure;Samples;Min_cycle;Max_cycle;Signal;HPM_P1;HPM_P2
2022/04/18 00:00:17;;;;;;;;;;;9.80;57.40;;;;;;5118677;27;19964;-77
2022/04/18 00:02:44;;;;;;;;;;;9.70;57.70;;;;;;5117663;27;19967;-78
2022/04/18 00:05:12;;;;;;;;;;;9.60;58.10;;;;;;5102830;27;19949;-76
2022/04/18 00:07:38;;;;;;;;;;;9.70;58.00;;;;;;5112667;28;19995;-75
2022/04/18 00:10:05;;;;;;;;;;;9.60;58.00;;;;;;5109294;27;19985;-79
2022/04/18 00:12:32;;;;;;;;;;;9.60;57.80;;;;;;5109320;28;19945;-77
2022/04/18 00:14:58;;;;;;;;;;;9.60;58.00;;;;;;5105023;28;20038;-75
2022/04/18 00:17:25;;;;;;;;;;;9.60;57.80;;;;;;5114848;28;20035;-75
2022/04/18 00:19:51;;;;;;;;;;;9.60;57.60;;;;;;5113606;28;19962;-78
2022/04/18 00:22:19;;;;;;;;;;;9.60;57.40;;;;;;5113699;27;19958;-78
2022/04/18 00:24:46;;;;;;;;;;;9.60;57.60;;;;;;5115170;28;19980;-78
2022/04/18 00:27:12;;;;;;;;;;;9.60;57.60;;;;;;5101298;28;19950;-77
2022/04/18 00:29:39;;;;;;;;;;;9.50;58.40;;;;;;5105100;28;19993;-75
2022/04/18 00:32:06;;;;;;;;;;;9.50;58.50;;;;;;5113752;27;20462;-76
2022/04/18 00:34:32;;;;;;;;;;;9.40;58.50;;;;;;5111786;28;19944;-77
2022/04/18 00:36:59;;;;;;;;;;;9.40;58.40;;;;;;5112062;28;20037;-75
2022/04/18 00:39:27;;;;;;;;;;;9.30;58.60;;;;;;5112725;28;19953;-74
2022/04/18 00:41:53;;;;;;;;;;;9.20;59.00;;;;;;5107845;28;19945;-77
2022/04/18 00:44:20;;;;;;;;;;;9.20;58.60;;;;;;5099931;28;19984;-74
2022/04/18 00:46:46;;;;;;;;;;;9.20;59.00;;;;;;5110008;27;19947;-78
2022/04/18 00:49:13;;;;;;;;;;;9.20;59.20;;;;;;5110487;28;19960;-78
2022/04/18 00:51:39;;;;;;;;;;;9.20;59.20;;;;;;5106202;28;19952;-76
2022/04/18 00:54:06;;;;;;;;;;;9.30;58.80;;;;;;5113172;28;19946;-77
2022/04/18 00:56:34;;;;;;;;;;;9.30;58.40;;;;;;5104420;27;19941;-77
2022/04/18 00:59:01;;;;;;;;;;;9.30;58.70;;;;;;5109258;28;19966;-77
2022/04/18 01:01:27;;;;;;;;;;;9.20;58.80;;;;;;5108489;28;19952;-77
2022/04/18 01:03:54;;;;;;;;;;;9.20;58.60;;;;;;5105018;28;19962;-78
2022/04/18 01:06:20;;;;;;;;;;;9.10;59.10;;;;;;5103907;28;19952;-77
2022/04/18 01:08:48;;;;;;;;;;;9.10;58.90;;;;;;5113971;28;19948;-78
2022/04/18 01:11:15;;;;;;;;;;;9.10;59.20;;;;;;5103911;28;19955;-77
2022/04/18 01:13:43;;;;;;;;;;;9.00;59.20;;;;;;5101097;28;19951;-76
2022/04/18 01:16:10;;;;;;;;;;;9.00;59.60;;;;;;5104368;28;19952;-78
2022/04/18 01:18:36;;;;;;;;;;;9.00;59.60;;;;;;5114600;27;19940;-76
2022/04/18 01:21:05;;;;;;;;;;;9.00;59.40;;;;;;5127227;22;20021;-69
2022/04/18 01:23:31;;;;;;;;;;;9.00;59.60;;;;;;5097926;28;19982;-69
2022/04/18 01:29:01;;;;;;;;;;;8.80;60.00;;;;;;5103698;28;20079;-69
2022/04/18 01:31:28;;;;;;;;;;;8.90;60.20;;;;;;5082701;28;19957;-69
2022/04/18 01:33:55;;;;;;;;;;;8.80;60.00;;;;;;5086254;28;20003;-69
2022/04/18 01:36:23;;;;;;;;;;;8.80;60.50;;;;;;5078276;28;20039;-69
2022/04/18 01:38:49;;;;;;;;;;;8.70;61.20;;;;;;5081501;28;19944;-70
2022/04/18 01:41:16;;;;;;;;;;;8.70;61.50;;;;;;5085395;28;20060;-69
2022/04/18 01:43:42;;;;;;;;;;;8.70;60.70;;;;;;5082690;28;19960;-69
2022/04/18 01:46:09;;;;;;;;;;;8.60;60.40;;;;;;5085964;28;19982;-68
2022/04/18 01:48:36;;;;;;;;;;;8.60;60.80;;;;;;5076146;28;19948;-69
2022/04/18 01:51:02;;;;;;;;;;;8.60;60.80;;;;;;5084101;28;19973;-69
2022/04/18 01:53:31;;;;;;;;;;;8.50;61.40;;;;;;5077161;28;20523;-68
2022/04/18 01:55:57;;;;;;;;;;;8.50;61.70;;;;;;5079587;28;19971;-68
2022/04/18 01:58:24;;;;;;;;;;;8.40;62.00;;;;;;5082077;28;19966;-69
2022/04/18 02:00:50;;;;;;;;;;;8.40;62.10;;;;;;5076298;28;20308;-69
2022/04/18 02:03:17;;;;;;;;;;;8.40;62.30;;;;;;5079856;28;20355;-67
2022/04/18 02:05:44;;;;;;;;;;;8.40;62.70;;;;;;5084048;28;19924;-69
2022/04/18 02:08:11;;;;;;;;;;;8.30;62.80;;;;;;5083205;28;19925;-69
2022/04/18 02:10:39;;;;;;;;;;;8.30;63.20;;;;;;5081640;28;20294;-68
2022/04/18 02:13:05;;;;;;;;;;;8.30;63.40;;;;;;5084994;28;19979;-68
2022/04/18 02:15:32;;;;;;;;;;;8.30;63.40;;;;;;5079804;28;20403;-68
2022/04/18 02:17:58;;;;;;;;;;;8.30;63.90;;;;;;5080244;28;19997;-68
2022/04/18 02:20:25;;;;;;;;;;;8.30;63.60;;;;;;5076631;28;20015;-68
2022/04/18 02:22:51;;;;;;;;;;;8.30;63.90;;;;;;5078509;28;19929;-68
2022/04/18 02:25:19;;;;;;;;;;;8.40;63.60;;;;;;5079994;28;20495;-69
2022/04/18 02:27:47;;;;;;;;;;;8.30;63.90;;;;;;5083471;28;19935;-68
2022/04/18 02:30:16;;;;;;;;;;;8.30;64.00;;;;;;5077603;28;20004;-69
2022/04/18 02:32:48;;;;;;;;;;;8.30;63.90;;;;;;5079375;28;19924;-67
2022/04/18 02:35:15;;;;;;;;;;;8.30;63.60;;;;;;5084143;28;19924;-68
2022/04/18 02:37:42;;;;;;;;;;;8.30;64.20;;;;;;5083698;28;20325;-68
2022/04/18 02:40:09;;;;;;;;;;;8.30;63.70;;;;;;5078443;28;19943;-68
2022/04/18 02:42:36;;;;;;;;;;;8.30;63.20;;;;;;5080831;28;19932;-69
2022/04/18 02:45:04;;;;;;;;;;;8.40;63.10;;;;;;5080257;28;20344;-67
2022/04/18 02:47:30;;;;;;;;;;;8.30;63.60;;;;;;5077478;28;20006;-69
2022/04/18 02:49:57;;;;;;;;;;;8.30;63.60;;;;;;5083076;28;19924;-68
2022/04/18 02:52:23;;;;;;;;;;;8.30;63.90;;;;;;5082609;28;19928;-66
2022/04/18 02:54:50;;;;;;;;;;;8.30;64.20;;;;;;5080373;28;20285;-68
2022/04/18 02:57:16;;;;;;;;;;;8.20;64.30;;;;;;5084837;28;19936;-68
2022/04/18 02:59:43;;;;;;;;;;;8.20;64.60;;;;;;5072231;28;19981;-70
2022/04/18 03:02:10;;;;;;;;;;;8.20;64.60;;;;;;5074689;28;19928;-69
2022/04/18 03:04:37;;;;;;;;;;;8.10;64.40;;;;;;5088161;28;19928;-69
2022/04/18 03:07:04;;;;;;;;;;;8.20;64.40;;;;;;5088857;28;19932;-69
2022/04/18 03:09:31;;;;;;;;;;;8.20;64.40;;;;;;5084137;28;20491;-70
2022/04/18 03:11:58;;;;;;;;;;;8.20;64.00;;;;;;5084376;28;19972;-69
2022/04/18 03:14:24;;;;;;;;;;;8.20;63.80;;;;;;5080181;28;19966;-69
2022/04/18 03:16:51;;;;;;;;;;;8.20;64.10;;;;;;5078396;28;20024;-70
2022/04/18 03:19:19;;;;;;;;;;;8.20;64.10;;;;;;5079696;28;20001;-68
2022/04/18 03:21:46;;;;;;;;;;;8.20;64.40;;;;;;5089783;28;20042;-67
2022/04/18 03:24:12;;;;;;;;;;;8.10;64.70;;;;;;5087249;28;19928;-68
2022/04/18 03:26:39;;;;;;;;;;;8.10;64.70;;;;;;5080050;28;19928;-67
2022/04/18 03:29:06;;;;;;;;;;;8.00;64.50;;;;;;5079553;28;19928;-68
2022/04/18 03:31:32;;;;;;;;;;;8.00;65.40;;;;;;5073847;28;19939;-68
2022/04/18 03:33:59;;;;;;;;;;;7.90;64.80;;;;;;5085697;28;20340;-68
2022/04/18 03:41:55;;;;;;;;;;;7.90;65.20;;;;;;5088917;28;20356;-68
2022/04/18 03:44:21;;;;;;;;;;;7.80;65.60;;;;;;5081616;28;19935;-68
2022/04/18 03:46:48;;;;;;;;;;;7.80;65.90;;;;;;5082568;28;20266;-67
2022/04/18 03:49:14;;;;;;;;;;;7.70;66.40;;;;;;5084405;28;19954;-68
2022/04/18 03:51:42;;;;;;;;;;;7.70;66.70;;;;;;5082405;28;19962;-68
2022/04/18 03:54:09;;;;;;;;;;;7.70;66.80;;;;;;5086399;28;20297;-68
2022/04/18 03:56:35;;;;;;;;;;;7.70;66.70;;;;;;5091862;28;19924;-67
2022/04/18 03:59:02;;;;;;;;;;;7.70;66.50;;;;;;5087318;28;19924;-68
2022/04/18 04:01:28;;;;;;;;;;;7.70;66.40;;;;;;5076185;28;19924;-70
2022/04/18 04:03:55;;;;;;;;;;;7.60;66.60;;;;;;5083167;28;19943;-67
2022/04/18 04:06:21;;;;;;;;;;;7.60;67.00;;;;;;5087350;28;19931;-68
2022/04/18 04:08:49;;;;;;;;;;;7.60;67.30;;;;;;5087475;28;19931;-69
2022/04/18 04:11:16;;;;;;;;;;;7.50;67.50;;;;;;5089993;28;20462;-70
2022/04/18 04:13:42;;;;;;;;;;;7.50;67.50;;;;;;5084650;28;19978;-67
2022/04/18 04:16:09;;;;;;;;;;;7.50;67.20;;;;;;5087707;28;19924;-68
2022/04/18 04:18:35;;;;;;;;;;;7.50;67.90;;;;;;5080990;28;19928;-68
2022/04/18 04:21:02;;;;;;;;;;;7.50;67.50;;;;;;5090609;28;19928;-68
2022/04/18 04:23:28;;;;;;;;;;;7.50;67.90;;;;;;5075963;28;19924;-67
2022/04/18 04:25:56;;;;;;;;;;;7.40;68.20;;;;;;5089078;28;19928;-69
2022/04/18 04:28:23;;;;;;;;;;;7.40;68.10;;;;;;5089590;28;20018;-67
2022/04/18 04:30:49;;;;;;;;;;;7.30;68.20;;;;;;5088444;28;19936;-68
2022/04/18 04:33:16;;;;;;;;;;;7.40;68.40;;;;;;5084051;28;19977;-68
2022/04/18 04:35:42;;;;;;;;;;;7.40;68.40;;;;;;5078880;28;19960;-68
2022/04/18 04:38:10;;;;;;;;;;;7.30;68.80;;;;;;5080297;28;20479;-68
2022/04/18 04:40:37;;;;;;;;;;;7.30;68.60;;;;;;5085358;28;20027;-67
2022/04/18 04:43:05;;;;;;;;;;;7.30;69.40;;;;;;5079783;28;20244;-67
2022/04/18 04:45:32;;;;;;;;;;;7.20;69.40;;;;;;5082514;28;20011;-67
2022/04/18 04:47:59;;;;;;;;;;;7.10;71.10;;;;;;5079455;28;19924;-68
2022/04/18 04:50:25;;;;;;;;;;;7.10;70.50;;;;;;5071641;28;19935;-67
2022/04/18 04:52:52;;;;;;;;;;;7.00;71.20;;;;;;5079753;28;19990;-68
2022/04/18 04:55:19;;;;;;;;;;;7.10;71.10;;;;;;5084462;28;19932;-68
2022/04/18 04:57:46;;;;;;;;;;;7.10;70.70;;;;;;5078987;28;19936;-68
2022/04/18 05:00:14;;;;;;;;;;;7.10;71.00;;;;;;5090611;28;20361;-68
2022/04/18 05:02:41;;;;;;;;;;;7.10;70.60;;;;;;5074701;28;20035;-69
2022/04/18 05:05:08;;;;;;;;;;;7.20;70.80;;;;;;5076158;28;19938;-68
2022/04/18 05:07:35;;;;;;;;;;;7.20;70.80;;;;;;5083209;28;19993;-67
2022/04/18 05:10:01;;;;;;;;;;;7.20;70.80;;;;;;5083355;28;19962;-67
2022/04/18 05:12:31;;;;;;;;;;;7.20;70.90;;;;;;5083600;28;19932;-68
2022/04/18 05:15:01;;;;;;;;;;;7.20;71.20;;;;;;5082109;28;19932;-68
2022/04/18 05:17:29;;;;;;;;;;;7.30;70.90;;;;;;5080340;28;19928;-68
2022/04/18 05:19:55;;;;;;;;;;;7.30;71.10;;;;;;5075026;28;19928;-68
2022/04/18 05:22:22;;;;;;;;;;;7.30;70.90;;;;;;5085446;28;19928;-68
2022/04/18 05:24:49;;;;;;;;;;;7.40;70.80;;;;;;5079637;28;20020;-69
2022/04/18 05:27:16;;;;;;;;;;;7.40;70.60;;;;;;5084196;28;19954;-70
2022/04/18 05:29:43;;;;;;;;;;;7.40;71.20;;;;;;5084859;28;20009;-70
2022/04/18 05:32:09;;;;;;;;;;;7.40;71.50;;;;;;5084710;28;20003;-68
2022/04/18 05:34:37;;;;;;;;;;;7.40;71.20;;;;;;5080721;28;20377;-67
2022/04/18 05:37:04;;;;;;;;;;;7.40;71.00;;;;;;5083705;28;19951;-68
2022/04/18 05:39:31;;;;;;;;;;;7.40;71.30;;;;;;5093154;28;19924;-67
2022/04/18 05:41:57;;;;;;;;;;;7.50;71.00;;;;;;5081289;28;19989;-67
2022/04/18 05:44:24;;;;;;;;;;;7.50;70.60;;;;;;5088080;28;19973;-69
2022/04/18 05:46:51;;;;;;;;;;;7.50;70.70;;;;;;5086921;28;19993;-68
2022/04/18 05:49:17;;;;;;;;;;;7.50;71.30;;;;;;5078800;28;19981;-68
2022/04/18 05:51:45;;;;;;;;;;;7.50;71.80;;;;;;5077808;28;19943;-68
2022/04/18 05:54:12;;;;;;;;;;;7.60;71.30;;;;;;5078307;28;19924;-68
2022/04/18 05:56:38;;;;;;;;;;;7.60;71.00;;;;;;5072312;28;19996;-67
2022/04/18 05:59:05;;;;;;;;;;;7.70;71.50;;;;;;5079158;28;19941;-68
2022/04/18 06:01:32;;;;;;;;;;;7.70;71.50;;;;;;5083035;28;20359;-69
2022/04/18 06:03:58;;;;;;;;;;;7.70;71.70;;;;;;5085133;28;19924;-69
2022/04/18 06:06:25;;;;;;;;;;;7.70;71.80;;;;;;5084842;28;19993;-68
2022/04/18 06:08:52;;;;;;;;;;;7.80;71.70;;;;;;5076754;28;19928;-69
2022/04/18 06:11:19;;;;;;;;;;;7.80;71.90;;;;;;5077498;28;19935;-69
2022/04/18 06:13:46;;;;;;;;;;;7.90;71.80;;;;;;5075113;28;20308;-70
2022/04/18 06:16:12;;;;;;;;;;;8.00;72.00;;;;;;5089357;28;20467;-69
2022/04/18 06:18:39;;;;;;;;;;;8.10;71.80;;;;;;5082734;28;19997;-70
2022/04/18 06:21:06;;;;;;;;;;;8.10;71.50;;;;;;5074986;28;19943;-68
2022/04/18 06:23:33;;;;;;;;;;;8.20;71.60;;;;;;5088503;28;20022;-67
2022/04/18 06:26:01;;;;;;;;;;;8.30;71.50;;;;;;5083555;28;19936;-67
2022/04/18 06:28:27;;;;;;;;;;;8.30;71.60;;;;;;5079075;28;19997;-68
2022/04/18 06:30:54;;;;;;;;;;;8.40;70.90;;;;;;5087662;28;19924;-67
2022/04/18 06:33:21;;;;;;;;;;;8.40;70.80;;;;;;5082603;28;20019;-67
2022/04/18 06:35:48;;;;;;;;;;;8.50;70.30;;;;;;5080756;28;19924;-68
2022/04/18 06:38:14;;;;;;;;;;;8.50;70.60;;;;;;5076785;28;20259;-70
2022/04/18 06:40:41;;;;;;;;;;;8.60;71.20;;;;;;5083137;28;19932;-67
2022/04/18 06:43:09;;;;;;;;;;;8.70;70.60;;;;;;5084549;28;19981;-69
2022/04/18 06:45:35;;;;;;;;;;;8.80;70.30;;;;;;5080108;28;19979;-69
2022/04/18 06:48:02;;;;;;;;;;;9.00;69.80;;;;;;5071392;28;19947;-68
2022/04/18 06:50:28;;;;;;;;;;;9.10;69.90;;;;;;5089382;28;19936;-70
2022/04/18 06:52:55;;;;;;;;;;;9.20;69.40;;;;;;5080224;28;19934;-70
2022/04/18 06:55:21;;;;;;;;;;;9.30;69.50;;;;;;5080068;28;19931;-70
2022/04/18 06:57:47;;;;;;;;;;;9.40;69.20;;;;;;5076502;28;19929;-69
2022/04/18 07:00:15;;;;;;;;;;;9.50;69.10;;;;;;5076884;28;20326;-68
2022/04/18 07:02:46;;;;;;;;;;;9.60;69.10;;;;;;5075660;28;19933;-68
2022/04/18 07:05:12;;;;;;;;;;;9.70;68.50;;;;;;5074896;28;19986;-69
2022/04/18 07:07:39;;;;;;;;;;;9.80;68.70;;;;;;5082513;28;19931;-69
2022/04/18 07:10:06;;;;;;;;;;;9.90;68.40;;;;;;5077800;28;20904;-69
2022/04/18 07:12:32;;;;;;;;;;;9.90;68.90;;;;;;5083649;28;20479;-69
2022/04/18 07:14:59;;;;;;;;;;;10.00;67.50;;;;;;5076229;28;20004;-69
2022/04/18 07:17:27;;;;;;;;;;;10.20;67.70;;;;;;5080691;28;20441;-69
2022/04/18 07:19:54;;;;;;;;;;;10.30;67.20;;;;;;5086697;28;20315;-69
2022/04/18 07:22:20;;;;;;;;;;;10.50;66.70;;;;;;5086985;28;20032;-69
2022/04/18 07:24:47;;;;;;;;;;;10.50;67.00;;;;;;5083746;28;19962;-69
2022/04/18 07:27:13;;;;;;;;;;;10.60;66.50;;;;;;5085981;28;19997;-69
2022/04/18 07:29:40;;;;;;;;;;;10.80;66.20;;;;;;5083231;28;19961;-69
2022/04/18 07:32:07;;;;;;;;;;;10.90;65.50;;;;;;5078872;28;20348;-68
2022/04/18 07:34:35;;;;;;;;;;;11.00;65.30;;;;;;5082880;28;19973;-68
2022/04/18 07:37:02;;;;;;;;;;;11.10;65.60;;;;;;5081238;28;20416;-69
2022/04/18 07:39:28;;;;;;;;;;;11.20;66.10;;;;;;5077684;28;19946;-68
2022/04/18 07:41:55;;;;;;;;;;;11.30;65.50;;;;;;5077798;28;20389;-68
2022/04/18 07:44:22;;;;;;;;;;;11.40;66.10;;;;;;5082524;28;19994;-68
2022/04/18 07:46:48;;;;;;;;;;;11.60;64.40;;;;;;5083525;28;20034;-67
2022/04/18 07:49:15;;;;;;;;;;;11.90;65.50;;;;;;5086334;28;20023;-67
2022/04/18 07:51:43;;;;;;;;;;;12.00;63.80;;;;;;5086606;28;19951;-70
2022/04/18 07:54:11;;;;;;;;;;;12.10;63.90;;;;;;5083958;28;19947;-69
2022/04/18 07:56:37;;;;;;;;;;;12.30;63.20;;;;;;5084790;28;20052;-68
2022/04/18 07:59:05;;;;;;;;;;;12.50;63.30;;;;;;5090194;28;19942;-69
2022/04/18 08:01:32;;;;;;;;;;;12.60;62.50;;;;;;5080760;28;20018;-69
2022/04/18 08:04:00;;;;;;;;;;;12.70;62.60;;;;;;5081145;28;19944;-69
2022/04/18 08:06:26;;;;;;;;;;;12.90;62.00;;;;;;5083627;28;19974;-69
2022/04/18 08:08:54;;;;;;;;;;;13.10;61.70;;;;;;5079423;28;19946;-69
2022/04/18 08:11:21;;;;;;;;;;;13.30;61.20;;;;;;5079910;28;19967;-70
2022/04/18 08:13:49;;;;;;;;;;;13.40;61.30;;;;;;5077631;28;20078;-70
2022/04/18 08:16:15;;;;;;;;;;;13.50;61.40;;;;;;5076489;28;19946;-70
2022/04/18 08:18:44;;;;;;;;;;;13.60;61.00;;;;;;5079787;28;19940;-70
2022/04/18 08:21:11;;;;;;;;;;;13.70;60.60;;;;;;5083468;28;20038;-71
2022/04/18 08:23:38;;;;;;;;;;;13.90;61.30;;;;;;5088425;28;19944;-71
2022/04/18 08:26:06;;;;;;;;;;;14.00;60.70;;;;;;5076837;28;19973;-71
2022/04/18 08:28:33;;;;;;;;;;;14.20;60.50;;;;;;5079682;28;20028;-72
2022/04/18 08:31:00;;;;;;;;;;;14.40;59.20;;;;;;5078899;28;20349;-71
2022/04/18 08:33:29;;;;;;;;;;;14.40;59.00;;;;;;5085309;28;20029;-71
2022/04/18 08:35:55;;;;;;;;;;;14.50;59.60;;;;;;5085332;28;20034;-70
2022/04/18 08:38:22;;;;;;;;;;;14.60;59.50;;;;;;5082372;28;20427;-70
2022/04/18 08:40:49;;;;;;;;;;;14.60;59.40;;;;;;5081338;28;19967;-70
2022/04/18 08:43:17;;;;;;;;;;;14.70;59.40;;;;;;5077070;28;19972;-71
2022/04/18 08:45:44;;;;;;;;;;;14.80;59.60;;;;;;5078985;28;19960;-71
2022/04/18 08:53:39;;;;;;;;;;;15.10;59.40;;;;;;5080533;28;20009;-68
2022/04/18 08:56:06;;;;;;;;;;;15.30;58.90;;;;;;5085648;28;19957;-71
2022/04/18 08:58:34;;;;;;;;;;;15.40;59.10;;;;;;5079553;28;20571;-71
2022/04/18 09:01:01;;;;;;;;;;;15.60;59.50;;;;;;5087057;28;19994;-73
2022/04/18 09:03:28;;;;;;;;;;;16.00;59.00;;;;;;5082680;28;20061;-73
2022/04/18 09:06:03;;;;;;;;;;;16.30;57.60;;;;;;5085843;28;20032;-72
2022/04/18 09:08:30;;;;;;;;;;;16.40;57.30;;;;;;5080031;28;20015;-72
2022/04/18 09:10:56;;;;;;;;;;;16.60;57.10;;;;;;5083594;28;20023;-74
2022/04/18 09:13:24;;;;;;;;;;;16.80;57.90;;;;;;5080351;28;19991;-72
2022/04/18 09:15:52;;;;;;;;;;;16.80;57.20;;;;;;5075802;28;19946;-74
2022/04/18 09:18:19;;;;;;;;;;;17.00;57.00;;;;;;5081262;28;19924;-74
2022/04/18 09:20:46;;;;;;;;;;;17.10;56.70;;;;;;5071344;28;19932;-72
2022/04/18 09:23:20;;;;;;;;;;;17.10;55.70;;;;;;5082368;28;19943;-73
2022/04/18 09:25:46;;;;;;;;;;;17.20;55.50;;;;;;5072890;28;20494;-73
2022/04/18 09:28:14;;;;;;;;;;;17.30;56.10;;;;;;5078134;28;19952;-74
2022/04/18 09:30:42;;;;;;;;;;;17.30;55.80;;;;;;5083811;28;20015;-74
2022/04/18 09:33:10;;;;;;;;;;;17.20;54.50;;;;;;5068779;28;19999;-73
2022/04/18 09:35:39;;;;;;;;;;;17.20;55.80;;;;;;5072733;28;20005;-70
2022/04/18 09:38:08;;;;;;;;;;;17.50;56.20;;;;;;5073306;28;19949;-69
2022/04/18 09:40:36;;;;;;;;;;;17.80;55.00;;;;;;5072251;28;20005;-70
2022/04/18 09:43:03;;;;;;;;;;;18.10;53.80;;;;;;5070443;28;20025;-70
2022/04/18 09:45:30;;;;;;;;;;;18.40;52.90;;;;;;5083845;28;20416;-70
2022/04/18 09:47:57;;;;;;;;;;;18.30;52.10;;;;;;5081247;28;19959;-70
2022/04/18 09:53:16;;;;;;;;;;;18.40;52.70;;;;;;5086533;28;19952;-70
2022/04/18 09:55:44;;;;;;;;;;;18.20;51.80;;;;;;5087549;28;19953;-70
2022/04/18 09:58:11;;;;;;;;;;;18.20;51.80;;;;;;5079365;28;19942;-70
2022/04/18 10:00:38;;;;;;;;;;;18.30;52.10;;;;;;5073948;28;19961;-70
2022/04/18 10:03:05;;;;;;;;;;;18.20;50.70;;;;;;5070571;28;20418;-70
2022/04/18 10:05:33;;;;;;;;;;;18.30;52.70;;;;;;5078581;28;20024;-70
2022/04/18 10:08:03;;;;;;;;;;;18.60;51.80;;;;;;5083127;28;20007;-70
2022/04/18 10:10:31;;;;;;;;;;;18.90;51.10;;;;;;5095100;28;20511;-70
2022/04/18 10:12:57;;;;;;;;;;;19.10;52.90;;;;;;5085006;28;20037;-70
2022/04/18 10:15:24;;;;;;;;;;;19.30;52.60;;;;;;5079001;28;19975;-70
2022/04/18 10:17:51;;;;;;;;;;;19.40;51.10;;;;;;5083108;28;20441;-71
2022/04/18 10:20:25;;;;;;;;;;;19.40;51.30;;;;;;5085433;28;20305;-70
2022/04/18 10:23:00;;;;;;;;;;;19.40;52.00;;;;;;5076593;28;19999;-71
2022/04/18 10:25:33;;;;;;;;;;;19.70;51.20;;;;;;5085373;28;20078;-71
2022/04/18 10:28:04;;;;;;;;;;;20.00;50.10;;;;;;5078228;28;19958;-71
2022/04/18 10:30:33;;;;;;;;;;;20.00;49.60;;;;;;5078091;28;20095;-71
2022/04/18 10:33:00;;;;;;;;;;;20.10;50.40;;;;;;5080648;28;19943;-71
2022/04/18 10:35:27;;;;;;;;;;;20.10;49.70;;;;;;5092028;28;20040;-72
2022/04/18 10:37:55;;;;;;;;;;;20.10;49.20;;;;;;5077665;28;20232;-72
2022/04/18 10:40:23;;;;;;;;;;;20.10;48.50;;;;;;5074737;28;19958;-72
2022/04/18 10:42:50;;;;;;;;;;;20.10;49.70;;;;;;5075970;28;20015;-70
2022/04/18 10:45:19;;;;;;;;;;;20.10;48.80;;;;;;5079907;28;19942;-71
2022/04/18 10:48:15;;;;;;;;;;;20.10;48.60;;;;;;5077413;28;20045;-71
2022/04/18 10:50:43;;;;;;;;;;;20.10;49.00;;;;;;5012523;28;20011;-71
2022/04/18 10:53:12;;;;;;;;;;;20.20;48.30;;;;;;5069890;28;19950;-72
2022/04/18 10:55:40;;;;;;;;;;;20.30;47.90;;;;;;5084398;28;19954;-71
2022/04/18 10:58:10;;;;;;;;;;;20.40;49.00;;;;;;5083216;28;20041;-71
2022/04/18 11:00:46;;;;;;;;;;;20.60;48.90;;;;;;5088383;28;19965;-72
2022/04/18 11:03:13;;;;;;;;;;;21.00;48.70;;;;;;5086777;28;19950;-72
2022/04/18 11:05:39;;;;;;;;;;;21.10;48.40;;;;;;5086191;28;19962;-72
2022/04/18 11:08:22;;;;;;;;;;;21.10;48.90;;;;;;5081841;28;19954;-70
2022/04/18 11:10:49;;;;;;;;;;;21.10;48.40;;;;;;5088410;28;19956;-70
2022/04/18 11:13:15;;;;;;;;;;;21.40;48.10;;;;;;5086135;28;19998;-72
2022/04/18 11:15:42;;;;;;;;;;;21.60;47.90;;;;;;5080980;28;19944;-72
2022/04/18 11:18:09;;;;;;;;;;;22.00;47.70;;;;;;5084890;28;19941;-70
2022/04/18 11:20:36;;;;;;;;;;;22.30;47.80;;;;;;5083966;28;19966;-72
2022/04/18 11:23:20;;;;;;;;;;;22.60;47.50;;;;;;5077667;28;20034;-70
2022/04/18 11:25:55;;;;;;;;;;;22.70;47.00;;;;;;5077923;28;20388;-71
2022/04/18 11:28:23;;;;;;;;;;;22.60;47.10;;;;;;5088913;28;19979;-71
2022/04/18 11:30:50;;;;;;;;;;;23.20;46.70;;;;;;5081603;28;19960;-71
2022/04/18 11:33:16;;;;;;;;;;;23.70;46.50;;;;;;5084740;28;19946;-70
2022/04/18 11:35:43;;;;;;;;;;;24.20;46.60;;;;;;5078631;28;19952;-71
2022/04/18 11:38:10;;;;;;;;;;;24.90;45.70;;;;;;5088282;28;20000;-71
2022/04/18 11:40:39;;;;;;;;;;;25.20;45.00;;;;;;5087244;28;20476;-71
2022/04/18 11:43:10;;;;;;;;;;;25.50;44.60;;;;;;5082836;28;20386;-70
2022/04/18 11:45:37;;;;;;;;;;;26.30;44.80;;;;;;5071850;28;20009;-71
2022/04/18 11:48:04;;;;;;;;;;;27.30;44.00;;;;;;5083969;28;20029;-71
2022/04/18 11:50:32;;;;;;;;;;;28.30;42.40;;;;;;5079032;28;20009;-71
2022/04/18 11:53:02;;;;;;;;;;;29.10;41.80;;;;;;5079323;28;20361;-72
2022/04/18 11:55:29;;;;;;;;;;;29.50;41.00;;;;;;5083853;28;20368;-72
2022/04/18 11:57:58;;;;;;;;;;;30.10;40.80;;;;;;5094193;28;19937;-71
2022/04/18 12:08:35;;;;;;;;;;;32.30;37.30;;;;;;5088312;28;20009;-71
2022/04/18 12:11:01;;;;;;;;;;;32.70;37.10;;;;;;5077529;28;20025;-68
2022/04/18 12:13:30;;;;;;;;;;;32.00;37.30;;;;;;5081356;28;19972;-68
2022/04/18 12:15:56;;;;;;;;;;;32.70;37.10;;;;;;5076765;28;20041;-67
2022/04/18 12:18:26;;;;;;;;;;;33.40;38.40;;;;;;5081484;28;20019;-69
2022/04/18 12:20:53;;;;;;;;;;;33.80;35.70;;;;;;5075515;28;19967;-71
2022/04/18 12:23:21;;;;;;;;;;;34.00;35.70;;;;;;5083837;28;19942;-68
2022/04/18 12:25:48;;;;;;;;;;;34.50;34.90;;;;;;5081204;28;19951;-69
2022/04/18 12:28:16;;;;;;;;;;;34.40;34.00;;;;;;5085242;28;19955;-69
2022/04/18 12:30:43;;;;;;;;;;;33.10;34.20;;;;;;5084457;28;19996;-69
2022/04/18 12:33:11;;;;;;;;;;;33.10;35.20;;;;;;5082043;28;20371;-69
2022/04/18 12:35:38;;;;;;;;;;;33.60;34.20;;;;;;5081416;28;19966;-67
2022/04/18 12:38:06;;;;;;;;;;;34.10;33.70;;;;;;5083813;28;20043;-67
2022/04/18 12:40:36;;;;;;;;;;;33.60;34.30;;;;;;5081955;28;20075;-64
2022/04/18 12:43:07;;;;;;;;;;;34.30;34.50;;;;;;5077915;28;19944;-66
2022/04/18 12:45:45;;;;;;;;;;;33.70;33.40;;;;;;5078692;28;19963;-64
2022/04/18 12:48:12;;;;;;;;;;;33.60;34.10;;;;;;5070413;28;19949;-66
2022/04/18 12:50:39;;;;;;;;;;;34.10;33.00;;;;;;5085215;28;19963;-65
2022/04/18 12:53:05;;;;;;;;;;;34.40;33.10;;;;;;5081753;28;20109;-66
2022/04/18 12:55:32;;;;;;;;;;;34.50;32.80;;;;;;5076425;28;20281;-65
2022/04/18 12:57:59;;;;;;;;;;;35.00;33.80;;;;;;5079979;28;20024;-65
2022/04/18 13:00:33;;;;;;;;;;;34.70;32.80;;;;;;5076365;28;19958;-65
2022/04/18 13:03:01;;;;;;;;;;;34.40;32.80;;;;;;5082502;28;19948;-65
2022/04/18 13:05:29;;;;;;;;;;;33.90;32.90;;;;;;5082306;28;19947;-65
2022/04/18 13:08:01;;;;;;;;;;;33.80;33.30;;;;;;5081674;28;20338;-66
2022/04/18 13:10:29;;;;;;;;;;;34.50;33.70;;;;;;5077488;28;20053;-67
2022/04/18 13:12:59;;;;;;;;;;;35.00;32.40;;;;;;5078914;28;19946;-66
2022/04/18 13:15:26;;;;;;;;;;;35.20;32.10;;;;;;5073533;28;20134;-66
2022/04/18 13:17:56;;;;;;;;;;;35.30;32.10;;;;;;5081442;28;20017;-66
2022/04/18 13:20:24;;;;;;;;;;;35.40;33.00;;;;;;5078725;28;20008;-64
2022/04/18 13:22:51;;;;;;;;;;;36.60;31.70;;;;;;5074428;28;19946;-66
2022/04/18 13:25:17;;;;;;;;;;;37.50;32.00;;;;;;5079340;28;19948;-65
2022/04/18 13:27:45;;;;;;;;;;;37.80;32.00;;;;;;5068629;28;19968;-65
2022/04/18 13:30:12;;;;;;;;;;;37.50;30.90;;;;;;5082452;28;19960;-66
2022/04/18 13:32:38;;;;;;;;;;;36.30;31.00;;;;;;5073096;28;19952;-67
2022/04/18 13:35:05;;;;;;;;;;;36.10;31.60;;;;;;5077971;28;19950;-64
2022/04/18 13:37:33;;;;;;;;;;;35.50;31.80;;;;;;5073543;28;19946;-65
2022/04/18 13:39:59;;;;;;;;;;;36.30;32.60;;;;;;5077733;28;19968;-66
2022/04/18 13:42:26;;;;;;;;;;;37.40;32.30;;;;;;5074804;28;19942;-66
2022/04/18 13:44:53;;;;;;;;;;;38.10;30.80;;;;;;5084868;28;20282;-65
2022/04/18 13:47:19;;;;;;;;;;;37.90;30.60;;;;;;5076742;28;20073;-65
2022/04/18 13:49:46;;;;;;;;;;;37.90;30.50;;;;;;5077274;28;20111;-67
2022/04/18 13:52:12;;;;;;;;;;;38.40;30.50;;;;;;5080016;28;20001;-66
2022/04/18 13:54:41;;;;;;;;;;;38.10;30.50;;;;;;5077465;28;20016;-66
2022/04/18 13:57:08;;;;;;;;;;;37.30;30.70;;;;;;5076644;28;20378;-65
2022/04/18 13:59:35;;;;;;;;;;;37.20;31.00;;;;;;5069394;28;20356;-66
2022/04/18 14:02:01;;;;;;;;;;;37.40;31.00;;;;;;5080860;28;20557;-70
2022/04/18 14:04:28;;;;;;;;;;;37.70;31.20;;;;;;5075767;28;19950;-71
2022/04/18 14:06:55;;;;;;;;;;;38.50;31.60;;;;;;5081349;28;20017;-71
2022/04/18 14:09:22;;;;;;;;;;;39.40;31.00;;;;;;5074785;28;19956;-70
2022/04/18 14:11:50;;;;;;;;;;;39.90;30.30;;;;;;5075477;28;19944;-70
2022/04/18 14:22:26;;;;;;;;;;;40.80;28.60;;;;;;5078037;28;19950;-70
2022/04/18 14:24:52;;;;;;;;;;;40.70;29.00;;;;;;5076176;28;20014;-70
2022/04/18 14:27:20;;;;;;;;;;;39.60;28.60;;;;;;5072854;28;19960;-70
2022/04/18 14:29:48;;;;;;;;;;;39.00;29.90;;;;;;5070175;28;19972;-69
2022/04/18 14:32:14;;;;;;;;;;;37.80;29.10;;;;;;5076946;28;19936;-72
2022/04/18 14:34:41;;;;;;;;;;;36.50;29.30;;;;;;5075178;28;19984;-71
2022/04/18 14:37:07;;;;;;;;;;;36.00;29.50;;;;;;5077407;28;20007;-71
2022/04/18 14:39:34;;;;;;;;;;;35.80;30.30;;;;;;5082301;28;19946;-71
2022/04/18 14:42:00;;;;;;;;;;;36.40;30.40;;;;;;5077755;28;20058;-70
2022/04/18 14:44:28;;;;;;;;;;;36.50;29.80;;;;;;5073858;28;20039;-71
2022/04/18 14:46:55;;;;;;;;;;;37.20;29.70;;;;;;5079413;28;20439;-72
2022/04/18 14:49:23;;;;;;;;;;;37.70;29.50;;;;;;5078814;28;20006;-74
2022/04/18 14:51:49;;;;;;;;;;;37.90;29.40;;;;;;5076459;28;20080;-70
2022/04/18 14:54:16;;;;;;;;;;;38.60;29.70;;;;;;5077918;28;19936;-68
2022/04/18 14:56:42;;;;;;;;;;;39.20;29.50;;;;;;5080571;28;20606;-68